Buoy 44845

sailwx.info

Track history (hours):
 
Tides and Currents Weather Stations Pressure Air Temp Water Temp Dewpoint Dewpoint Depression Visibility Wind Speed Wind Dir Waves Ship Positions

Drifting buoy 44845

Last reported at 2014-Aug-22 22:01 UTC. Time now 2014-Aug-22 23:36 UTC.
Position N 63°44' W 001°45'.

Water temperature 9.9 ° C

Date/timePositionNaut miles runAvg speedWind from/ knotsBaromVisibWave heightAir tempDewpointWater temp
2014-Aug-22 22:01N 63°44' W 001°45'0 0.4 9.9
2014-Aug-22 21:01N 63°44' W 001°45'0 0.2 9.8
2014-Aug-22 20:01N 63°43' W 001°45'0 0.3 9.9
2014-Aug-22 19:01N 63°43' W 001°45'0 0.3 9.9
2014-Aug-22 18:01N 63°43' W 001°46'0 0.3 9.9
2014-Aug-22 17:01N 63°43' W 001°46'0 0.2 9.9
2014-Aug-22 16:01N 63°43' W 001°46'0 0.1 9.9
2014-Aug-22 15:01N 63°42' W 001°46'0 0.1 10.0
2014-Aug-22 14:01N 63°42' W 001°46'0 0.1 10.0
2014-Aug-22 13:01N 63°42' W 001°47'0 0.2 10.0
2014-Aug-22 12:01N 63°42' W 001°47'0 0.3 10.0
2014-Aug-22 11:01N 63°42' W 001°47'0 0.4 9.9
2014-Aug-22 10:01N 63°42' W 001°48'0 0.4 9.9
2014-Aug-22 09:01N 63°41' W 001°48'0 0.5 10.0
2014-Aug-22 08:01N 63°41' W 001°48'0 0.4 10.0
2014-Aug-22 07:01N 63°40' W 001°49'0 0.5 9.9
2014-Aug-22 06:01N 63°40' W 001°49'0 0.4 10.0
2014-Aug-22 05:01N 63°39' W 001°50'0 0.4 9.9
2014-Aug-22 04:01N 63°39' W 001°50'0 0.4 9.9
2014-Aug-22 03:01N 63°39' W 001°50'0 0.3 9.9
2014-Aug-22 02:01N 63°38' W 001°50'0 0.3 10.0
2014-Aug-22 01:01N 63°38' W 001°50'0 0.3 9.9
2014-Aug-22 00:01N 63°38' W 001°51'1 0.4 10.0
2014-Aug-21 22:01N 63°37' W 001°51'1 0.5 10.0
2014-Aug-21 21:01N 63°37' W 001°52'1 0.5 10.0
2014-Aug-21 20:01N 63°36' W 001°52'1 0.6 9.9
2014-Aug-21 19:01N 63°36' W 001°53'1 0.6 9.9
2014-Aug-21 18:01N 63°35' W 001°53'1 0.6 10.0
2014-Aug-21 17:01N 63°34' W 001°54'1 0.6 9.9
2014-Aug-21 16:01N 63°34' W 001°54'0 0.5 9.8
2014-Aug-21 15:01N 63°33' W 001°54'0 0.3 9.7
2014-Aug-21 14:01N 63°33' W 001°54'0 0.3 9.6
2014-Aug-21 13:01N 63°33' W 001°54'0 0.3 9.4
2014-Aug-21 12:01N 63°33' W 001°54'0 0.4 9.5
2014-Aug-21 11:01N 63°32' W 001°54'0 0.4 9.5
2014-Aug-21 10:01N 63°32' W 001°54'1 0.5 9.3
2014-Aug-21 09:01N 63°31' W 001°55'1 0.6 9.5
2014-Aug-21 08:01N 63°31' W 001°56'1 0.6 9.4
2014-Aug-21 07:01N 63°31' W 001°57'1 0.7 9.4
2014-Aug-21 06:01N 63°30' W 001°57'1 0.8 9.4
2014-Aug-21 05:01N 63°29' W 001°58'1 0.7 9.3
2014-Aug-21 04:01N 63°29' W 001°58'1 0.6 9.4
2014-Aug-21 03:01N 63°28' W 001°58'0 0.5 9.4
2014-Aug-21 02:01N 63°28' W 001°58'0 0.4 9.4
2014-Aug-21 01:01N 63°27' W 001°58'0 0.4 9.4
2014-Aug-21 00:01N 63°27' W 001°58'0 0.3 9.5
2014-Aug-20 23:01N 63°27' W 001°58'0 0.2 9.5
2014-Aug-20 22:01N 63°26' W 001°58'0 0.3 9.5
2014-Aug-20 21:01N 63°26' W 001°59'0 0.4 9.7
2014-Aug-20 20:01N 63°26' W 001°59'1 0.5 9.7
2014-Aug-20 19:01N 63°26' W 002°00'1 0.6 9.7
2014-Aug-20 18:01N 63°25' W 002°01'1 0.6 9.7
2014-Aug-20 17:01N 63°25' W 002°02'1 0.6 9.7
2014-Aug-20 16:01N 63°24' W 002°03'1 0.8 9.6
2014-Aug-20 15:01N 63°24' W 002°03'1 0.7 9.5
2014-Aug-20 14:01N 63°23' W 002°03'1 0.6 9.5
2014-Aug-20 13:01N 63°22' W 002°03'0 0.3 9.4
2014-Aug-20 12:01N 63°22' W 002°03'0 0.2 9.4
2014-Aug-20 11:01N 63°22' W 002°03'0 0.2 9.5
2014-Aug-20 10:01N 63°22' W 002°03'0 0.2 9.4
2014-Aug-20 09:01N 63°21' W 002°03'0 0.3 9.4
2014-Aug-20 08:01N 63°21' W 002°04'0 0.3 9.5
2014-Aug-20 07:01N 63°21' W 002°04'1 0.6 9.6
2014-Aug-20 06:01N 63°21' W 002°05'1 0.6 9.6
2014-Aug-20 05:01N 63°20' W 002°06'1 0.5 9.6
2014-Aug-20 04:01N 63°20' W 002°06'1 0.5 9.6
2014-Aug-20 03:01N 63°19' W 002°07'0 0.5 9.5
2014-Aug-20 02:01N 63°19' W 002°07'0 0.4 9.5
2014-Aug-20 01:01N 63°18' W 002°07'0 0.4 9.6
2014-Aug-20 00:01N 63°18' W 002°08'0 0.5 9.6
2014-Aug-19 23:01N 63°18' W 002°08'1 0.6 9.6
2014-Aug-19 22:01N 63°17' W 002°08'0 0.4 9.5
2014-Aug-19 21:01N 63°17' W 002°08'0 0.4 9.5
2014-Aug-19 20:01N 63°16' W 002°08'1 0.6 9.5
2014-Aug-19 19:01N 63°16' W 002°08'0 0.0 9.5
2014-Aug-19 18:01N 63°16' W 002°08'0 0.3 9.6
2014-Aug-19 17:01N 63°15' W 002°08'0 0.3 9.4
2014-Aug-19 16:01N 63°15' W 002°09'0 0.4 9.5
2014-Aug-19 15:01N 63°15' W 002°09'0 0.4 9.5
2014-Aug-19 14:01N 63°14' W 002°09'0 0.3 9.5
2014-Aug-19 13:01N 63°14' W 002°09'0 0.3 9.6
2014-Aug-19 12:01N 63°14' W 002°09'0 0.3 9.5
2014-Aug-19 11:01N 63°14' W 002°09'0 0.4 9.4
2014-Aug-19 10:01N 63°13' W 002°09'1 0.5 9.5
2014-Aug-19 09:01N 63°13' W 002°08'0 0.4 9.4
2014-Aug-19 08:01N 63°12' W 002°08'0 0.4 9.3
2014-Aug-19 07:01N 63°12' W 002°07'0 0.4 9.3
2014-Aug-19 06:01N 63°12' W 002°07'0 0.3 9.2
2014-Aug-19 05:01N 63°11' W 002°07'0 0.3 9.1
2014-Aug-19 04:01N 63°11' W 002°06'0 0.3 9.0
2014-Aug-19 03:01N 63°11' W 002°06'0 0.4 9.1
2014-Aug-19 02:01N 63°10' W 002°06'0 0.4 9.1
2014-Aug-19 01:01N 63°10' W 002°05'0 0.2 9.2
2014-Aug-19 00:01N 63°10' W 002°05'0 0.3 9.2
2014-Aug-18 23:01N 63°10' W 002°05'0 0.4 9.1
2014-Aug-18 22:01N 63°09' W 002°04'0 0.5 9.0
2014-Aug-18 21:01N 63°09' W 002°04'1 0.6 9.1
2014-Aug-18 20:01N 63°09' W 002°03'1 0.7 9.3
2014-Aug-18 19:01N 63°08' W 002°01'1 0.7 9.3
2014-Aug-18 18:01N 63°08' W 002°00'1 0.5 9.3
2014-Aug-18 17:01N 63°08' W 001°59'0 0.5 9.2
2014-Aug-18 16:01N 63°08' W 001°58'0 0.4 9.2
2014-Aug-18 15:01N 63°08' W 001°57'0 0.4 9.2
2014-Aug-18 14:01N 63°09' W 001°56'0 0.4 9.1
2014-Aug-18 13:01N 63°09' W 001°56'0 0.3 9.3
2014-Aug-18 12:01N 63°09' W 001°55'0 0.1 9.2
2014-Aug-18 10:01N 63°09' W 001°55'0 0.3 9.1
2014-Aug-18 09:01N 63°09' W 001°54'1 0.5 9.0
2014-Aug-18 08:01N 63°09' W 001°53'1 0.6 9.0
2014-Aug-18 07:01N 63°09' W 001°52'1 0.7 9.1
2014-Aug-18 06:01N 63°10' W 001°50'1 0.8 9.1
2014-Aug-18 05:01N 63°10' W 001°49'1 0.7 9.0
2014-Aug-18 04:01N 63°11' W 001°48'1 0.7 9.0
2014-Aug-18 03:01N 63°11' W 001°47'1 0.6 9.2
2014-Aug-18 02:01N 63°12' W 001°47'1 0.7 9.4
2014-Aug-18 01:01N 63°12' W 001°46'0 0.4 9.6
2014-Aug-18 00:01N 63°13' W 001°46'0 0.2 9.7
2014-Aug-17 23:01N 63°13' W 001°46'0 0.3 9.8
2014-Aug-17 22:01N 63°13' W 001°46'0 0.2 9.9
2014-Aug-17 21:01N 63°13' W 001°46'0 0.4 10.0
2014-Aug-17 20:01N 63°13' W 001°45'1 0.8 10.0
2014-Aug-17 19:01N 63°14' W 001°43'1 1.0 10.1
2014-Aug-17 18:01N 63°14' W 001°41'1 1.1 10.3
2014-Aug-17 17:01N 63°15' W 001°39'2 2.4 10.3
2014-Aug-17 16:01N 63°17' W 001°37'0 0.0 10.3
2014-Aug-17 15:01N 63°17' W 001°37'1 1.1 10.5
2014-Aug-17 14:01N 63°18' W 001°36'1 0.8 10.5
2014-Aug-17 13:01N 63°19' W 001°36'1 0.6 10.4
2014-Aug-17 12:01N 63°19' W 001°37'0 0.5 10.5
2014-Aug-17 11:01N 63°20' W 001°37'0 0.2 10.4
2014-Aug-17 10:01N 63°20' W 001°38'0 0.0 10.4
2014-Aug-17 09:01N 63°20' W 001°38'1 0.5 10.4
2014-Aug-17 07:01N 63°19' W 001°35'1 0.8 10.6
2014-Aug-17 06:01N 63°19' W 001°34'1 0.9 10.5
2014-Aug-17 05:01N 63°19' W 001°32'1 0.9 10.7
2014-Aug-17 04:01N 63°19' W 001°30'1 0.7 10.7
2014-Aug-17 03:01N 63°19' W 001°28'1 0.5 10.8
2014-Aug-17 02:01N 63°19' W 001°27'0 0.3 10.8
2014-Aug-17 01:01N 63°20' W 001°27'0 0.2 10.8
2014-Aug-17 00:01N 63°20' W 001°27'0 0.2 10.8
2014-Aug-16 23:01N 63°20' W 001°27'0 0.3 10.8
2014-Aug-16 22:01N 63°20' W 001°28'0 0.2 10.8
2014-Aug-16 21:01N 63°20' W 001°28'0 0.3 10.7
2014-Aug-16 20:01N 63°20' W 001°29'0 0.3 10.7
2014-Aug-16 19:01N 63°20' W 001°30'0 0.2 10.6
2014-Aug-16 18:01N 63°20' W 001°30'0 0.3 10.6
2014-Aug-16 17:01N 63°20' W 001°31'0 0.4 10.7
2014-Aug-16 16:01N 63°20' W 001°32'0 0.3 10.7
2014-Aug-16 15:01N 63°21' W 001°32'0 0.4 10.5
2014-Aug-16 14:01N 63°21' W 001°33'1 0.5 10.6
2014-Aug-16 13:01N 63°21' W 001°34'1 0.5 10.6
2014-Aug-16 12:01N 63°20' W 001°36'0 0.5 10.5
2014-Aug-16 11:01N 63°20' W 001°37'1 0.5 10.7
2014-Aug-16 10:01N 63°20' W 001°38'0 0.5 10.6
2014-Aug-16 09:01N 63°20' W 001°39'1 0.6 10.7
2014-Aug-16 08:01N 63°20' W 001°40'0 0.4 10.7
2014-Aug-16 07:01N 63°20' W 001°41'0 0.2 10.8
2014-Aug-16 06:01N 63°20' W 001°41'0 0.4 10.8
2014-Aug-16 05:01N 63°20' W 001°42'0 0.3 10.8
2014-Aug-16 04:01N 63°20' W 001°43'0 0.4 10.9
2014-Aug-16 03:01N 63°20' W 001°44'0 0.4 11.0
2014-Aug-16 02:01N 63°20' W 001°45'1 0.5 10.9
2014-Aug-16 01:01N 63°20' W 001°46'0 0.5 11.0
2014-Aug-16 00:01N 63°19' W 001°47'1 0.6 11.0
2014-Aug-15 23:01N 63°19' W 001°48'1 0.7 11.0
2014-Aug-15 22:01N 63°19' W 001°50'1 0.8 11.0
2014-Aug-15 21:01N 63°19' W 001°51'1 0.6 11.0
2014-Aug-15 20:01N 63°19' W 001°53'1 0.6 10.9
2014-Aug-15 19:01N 63°19' W 001°54'1 0.5 11.0
2014-Aug-15 18:01N 63°18' W 001°55'0 0.5 11.0
2014-Aug-15 17:01N 63°18' W 001°56'0 0.4 11.0
2014-Aug-15 16:01N 63°18' W 001°57'1 0.5 11.1
2014-Aug-15 15:01N 63°18' W 001°58'0 0.4 11.1
2014-Aug-15 14:01N 63°18' W 001°59'0 0.4 11.1
2014-Aug-15 13:01N 63°18' W 001°60'0 0.5 11.3
2014-Aug-15 12:01N 63°18' W 002°01'0 0.4 11.2
2014-Aug-15 11:01N 63°17' W 002°02'0 0.5 11.2
2014-Aug-15 10:01N 63°17' W 002°03'1 0.5 11.1
2014-Aug-15 09:01N 63°17' W 002°04'0 0.5 11.0
2014-Aug-15 08:01N 63°17' W 002°05'1 0.6 11.1
2014-Aug-15 07:01N 63°17' W 002°06'1 0.6 10.9
2014-Aug-15 06:01N 63°17' W 002°07'1 0.7 11.2
2014-Aug-15 05:01N 63°17' W 002°09'1 0.6 11.2
2014-Aug-15 04:01N 63°16' W 002°10'1 1.2 11.1
2014-Aug-15 03:01N 63°15' W 002°12'0 0.0 11.0
2014-Aug-15 02:01N 63°15' W 002°12'1 0.7 11.1
2014-Aug-15 01:01N 63°15' W 002°13'1 0.7 11.0
2014-Aug-15 00:01N 63°14' W 002°13'1 0.6 10.9
2014-Aug-14 23:01N 63°14' W 002°14'0 0.5 10.9
2014-Aug-14 22:01N 63°13' W 002°14'0 0.3 10.7
2014-Aug-14 21:01N 63°13' W 002°15'0 0.3 10.7
2014-Aug-14 20:01N 63°13' W 002°15'0 0.3 10.6
2014-Aug-14 19:01N 63°13' W 002°15'0 0.3 10.6
2014-Aug-14 18:01N 63°12' W 002°16'0 0.3 10.5
2014-Aug-14 17:01N 63°12' W 002°16'0 0.4 10.5
2014-Aug-14 16:01N 63°12' W 002°16'0 0.3 10.4
2014-Aug-14 15:01N 63°11' W 002°17'1 0.5 10.5
2014-Aug-14 14:01N 63°11' W 002°17'0 0.4 10.6
2014-Aug-14 13:01N 63°11' W 002°17'0 0.4 10.5
2014-Aug-14 12:01N 63°10' W 002°17'0 0.5 10.7
2014-Aug-14 11:01N 63°10' W 002°17'0 0.5 10.9
2014-Aug-14 10:01N 63°09' W 002°17'0 0.4 10.9
2014-Aug-14 09:01N 63°09' W 002°17'1 0.5 10.8
2014-Aug-14 08:01N 63°08' W 002°17'0 0.5 10.8
2014-Aug-14 07:01N 63°08' W 002°16'0 0.5 10.8
2014-Aug-14 06:01N 63°08' W 002°15'0 0.4 10.9
2014-Aug-14 05:01N 63°08' W 002°14'0 0.5 11.0
2014-Aug-14 04:01N 63°07' W 002°13'1 0.5 11.0
2014-Aug-14 03:01N 63°07' W 002°12'0 0.5 11.0
2014-Aug-14 02:01N 63°07' W 002°11'1 0.6 11.1
2014-Aug-14 01:01N 63°07' W 002°10'0 0.0 11.1
2014-Aug-14 00:01N 63°07' W 002°10'0 0.2 11.1
2014-Aug-13 23:01N 63°07' W 002°10'0 0.1 11.1
2014-Aug-13 22:01N 63°07' W 002°09'0 0.1 11.2
2014-Aug-13 21:01N 63°07' W 002°09'0 0.2 11.2
2014-Aug-13 20:01N 63°06' W 002°09'0 0.2 11.0
2014-Aug-13 19:01N 63°06' W 002°09'0 0.2 11.0
2014-Aug-13 18:01N 63°06' W 002°08'0 0.3 11.0
2014-Aug-13 17:01N 63°06' W 002°08'0 0.3 10.9
2014-Aug-13 16:01N 63°06' W 002°07'0 0.4 10.9
2014-Aug-13 15:01N 63°06' W 002°06'0 0.3 10.9
2014-Aug-13 14:01N 63°06' W 002°06'0 0.3 10.9
2014-Aug-13 13:01N 63°06' W 002°05'0 0.2 10.8
2014-Aug-13 12:01N 63°06' W 002°05'0 0.1 10.7
2014-Aug-13 11:01N 63°07' W 002°05'0 0.1 10.6
2014-Aug-13 10:01N 63°07' W 002°05'0 0.1 10.5
2014-Aug-13 09:01N 63°07' W 002°05'0 0.1 10.5
2014-Aug-13 08:01N 63°07' W 002°05'0 0.2 10.4
2014-Aug-13 07:01N 63°07' W 002°05'0 0.3 10.3
2014-Aug-13 06:01N 63°07' W 002°05'0 0.2 10.2
2014-Aug-13 05:01N 63°07' W 002°06'0 0.1 10.3
2014-Aug-13 04:01N 63°07' W 002°06'0 0.1 10.3
2014-Aug-13 03:01N 63°07' W 002°06'0 0.1 10.2
2014-Aug-13 02:01N 63°07' W 002°06'0 0.1 10.2
2014-Aug-13 01:01N 63°07' W 002°05'0 0.1 10.2
2014-Aug-13 00:01N 63°07' W 002°05'0 0.1 10.2
2014-Aug-12 23:01N 63°07' W 002°05'0 0.2 10.2
2014-Aug-12 22:01N 63°08' W 002°06'   10.2
Track history (hours):
 
Tides and Currents Weather Stations Pressure Air Temp Water Temp Dewpoint Dewpoint Depression Visibility Wind Speed Wind Dir Waves Ship Positions

Drifting buoy 44845

Last reported at 2014-Aug-22 22:01 UTC. Time now 2014-Aug-22 23:36 UTC.
Position N 63°44' W 001°45'.

Water temperature 9.9 ° C

Date/timePositionNaut miles runAvg speedWind from/ knotsBaromVisibWave heightAir tempDewpointWater temp
2014-Aug-22 22:01N 63°44' W 001°45'0 0.4 9.9
2014-Aug-22 21:01N 63°44' W 001°45'0 0.2 9.8
2014-Aug-22 20:01N 63°43' W 001°45'0 0.3 9.9
2014-Aug-22 19:01N 63°43' W 001°45'0 0.3 9.9
2014-Aug-22 18:01N 63°43' W 001°46'0 0.3 9.9
2014-Aug-22 17:01N 63°43' W 001°46'0 0.2 9.9
2014-Aug-22 16:01N 63°43' W 001°46'0 0.1 9.9
2014-Aug-22 15:01N 63°42' W 001°46'0 0.1 10.0
2014-Aug-22 14:01N 63°42' W 001°46'0 0.1 10.0
2014-Aug-22 13:01N 63°42' W 001°47'0 0.2 10.0
2014-Aug-22 12:01N 63°42' W 001°47'0 0.3 10.0
2014-Aug-22 11:01N 63°42' W 001°47'0 0.4 9.9
2014-Aug-22 10:01N 63°42' W 001°48'0 0.4 9.9
2014-Aug-22 09:01N 63°41' W 001°48'0 0.5 10.0
2014-Aug-22 08:01N 63°41' W 001°48'0 0.4 10.0
2014-Aug-22 07:01N 63°40' W 001°49'0 0.5 9.9
2014-Aug-22 06:01N 63°40' W 001°49'0 0.4 10.0
2014-Aug-22 05:01N 63°39' W 001°50'0 0.4 9.9
2014-Aug-22 04:01N 63°39' W 001°50'0 0.4 9.9
2014-Aug-22 03:01N 63°39' W 001°50'0 0.3 9.9
2014-Aug-22 02:01N 63°38' W 001°50'0 0.3 10.0
2014-Aug-22 01:01N 63°38' W 001°50'0 0.3 9.9
2014-Aug-22 00:01N 63°38' W 001°51'1 0.4 10.0
2014-Aug-21 22:01N 63°37' W 001°51'1 0.5 10.0
2014-Aug-21 21:01N 63°37' W 001°52'1 0.5 10.0
2014-Aug-21 20:01N 63°36' W 001°52'1 0.6 9.9
2014-Aug-21 19:01N 63°36' W 001°53'1 0.6 9.9
2014-Aug-21 18:01N 63°35' W 001°53'1 0.6 10.0
2014-Aug-21 17:01N 63°34' W 001°54'1 0.6 9.9
2014-Aug-21 16:01N 63°34' W 001°54'0 0.5 9.8
2014-Aug-21 15:01N 63°33' W 001°54'0 0.3 9.7
2014-Aug-21 14:01N 63°33' W 001°54'0 0.3 9.6
2014-Aug-21 13:01N 63°33' W 001°54'0 0.3 9.4
2014-Aug-21 12:01N 63°33' W 001°54'0 0.4 9.5
2014-Aug-21 11:01N 63°32' W 001°54'0 0.4 9.5
2014-Aug-21 10:01N 63°32' W 001°54'1 0.5 9.3
2014-Aug-21 09:01N 63°31' W 001°55'1 0.6 9.5
2014-Aug-21 08:01N 63°31' W 001°56'1 0.6 9.4
2014-Aug-21 07:01N 63°31' W 001°57'1 0.7 9.4
2014-Aug-21 06:01N 63°30' W 001°57'1 0.8 9.4
2014-Aug-21 05:01N 63°29' W 001°58'1 0.7 9.3
2014-Aug-21 04:01N 63°29' W 001°58'1 0.6 9.4
2014-Aug-21 03:01N 63°28' W 001°58'0 0.5 9.4
2014-Aug-21 02:01N 63°28' W 001°58'0 0.4 9.4
2014-Aug-21 01:01N 63°27' W 001°58'0 0.4 9.4
2014-Aug-21 00:01N 63°27' W 001°58'0 0.3 9.5
2014-Aug-20 23:01N 63°27' W 001°58'0 0.2 9.5
2014-Aug-20 22:01N 63°26' W 001°58'0 0.3 9.5
2014-Aug-20 21:01N 63°26' W 001°59'0 0.4 9.7
2014-Aug-20 20:01N 63°26' W 001°59'1 0.5 9.7
2014-Aug-20 19:01N 63°26' W 002°00'1 0.6 9.7
2014-Aug-20 18:01N 63°25' W 002°01'1 0.6 9.7
2014-Aug-20 17:01N 63°25' W 002°02'1 0.6 9.7
2014-Aug-20 16:01N 63°24' W 002°03'1 0.8 9.6
2014-Aug-20 15:01N 63°24' W 002°03'1 0.7 9.5
2014-Aug-20 14:01N 63°23' W 002°03'1 0.6 9.5
2014-Aug-20 13:01N 63°22' W 002°03'0 0.3 9.4
2014-Aug-20 12:01N 63°22' W 002°03'0 0.2 9.4
2014-Aug-20 11:01N 63°22' W 002°03'0 0.2 9.5
2014-Aug-20 10:01N 63°22' W 002°03'0 0.2 9.4
2014-Aug-20 09:01N 63°21' W 002°03'0 0.3 9.4
2014-Aug-20 08:01N 63°21' W 002°04'0 0.3 9.5
2014-Aug-20 07:01N 63°21' W 002°04'1 0.6 9.6
2014-Aug-20 06:01N 63°21' W 002°05'1 0.6 9.6
2014-Aug-20 05:01N 63°20' W 002°06'1 0.5 9.6
2014-Aug-20 04:01N 63°20' W 002°06'1 0.5 9.6
2014-Aug-20 03:01N 63°19' W 002°07'0 0.5 9.5
2014-Aug-20 02:01N 63°19' W 002°07'0 0.4 9.5
2014-Aug-20 01:01N 63°18' W 002°07'0 0.4 9.6
2014-Aug-20 00:01N 63°18' W 002°08'0 0.5 9.6
2014-Aug-19 23:01N 63°18' W 002°08'1 0.6 9.6
2014-Aug-19 22:01N 63°17' W 002°08'0 0.4 9.5
2014-Aug-19 21:01N 63°17' W 002°08'0 0.4 9.5
2014-Aug-19 20:01N 63°16' W 002°08'1 0.6 9.5
2014-Aug-19 19:01N 63°16' W 002°08'0 0.0 9.5
2014-Aug-19 18:01N 63°16' W 002°08'0 0.3 9.6
2014-Aug-19 17:01N 63°15' W 002°08'0 0.3 9.4
2014-Aug-19 16:01N 63°15' W 002°09'0 0.4 9.5
2014-Aug-19 15:01N 63°15' W 002°09'0 0.4 9.5
2014-Aug-19 14:01N 63°14' W 002°09'0 0.3 9.5
2014-Aug-19 13:01N 63°14' W 002°09'0 0.3 9.6
2014-Aug-19 12:01N 63°14' W 002°09'0 0.3 9.5
2014-Aug-19 11:01N 63°14' W 002°09'0 0.4 9.4
2014-Aug-19 10:01N 63°13' W 002°09'1 0.5 9.5
2014-Aug-19 09:01N 63°13' W 002°08'0 0.4 9.4
2014-Aug-19 08:01N 63°12' W 002°08'0 0.4 9.3
2014-Aug-19 07:01N 63°12' W 002°07'0 0.4 9.3
2014-Aug-19 06:01N 63°12' W 002°07'0 0.3 9.2
2014-Aug-19 05:01N 63°11' W 002°07'0 0.3 9.1
2014-Aug-19 04:01N 63°11' W 002°06'0 0.3 9.0
2014-Aug-19 03:01N 63°11' W 002°06'0 0.4 9.1
2014-Aug-19 02:01N 63°10' W 002°06'0 0.4 9.1
2014-Aug-19 01:01N 63°10' W 002°05'0 0.2 9.2
2014-Aug-19 00:01N 63°10' W 002°05'0 0.3 9.2
2014-Aug-18 23:01N 63°10' W 002°05'0 0.4 9.1
2014-Aug-18 22:01N 63°09' W 002°04'0 0.5 9.0
2014-Aug-18 21:01N 63°09' W 002°04'1 0.6 9.1
2014-Aug-18 20:01N 63°09' W 002°03'1 0.7 9.3
2014-Aug-18 19:01N 63°08' W 002°01'1 0.7 9.3
2014-Aug-18 18:01N 63°08' W 002°00'1 0.5 9.3
2014-Aug-18 17:01N 63°08' W 001°59'0 0.5 9.2
2014-Aug-18 16:01N 63°08' W 001°58'0 0.4 9.2
2014-Aug-18 15:01N 63°08' W 001°57'0 0.4 9.2
2014-Aug-18 14:01N 63°09' W 001°56'0 0.4 9.1
2014-Aug-18 13:01N 63°09' W 001°56'0 0.3 9.3
2014-Aug-18 12:01N 63°09' W 001°55'0 0.1 9.2
2014-Aug-18 10:01N 63°09' W 001°55'0 0.3 9.1
2014-Aug-18 09:01N 63°09' W 001°54'1 0.5 9.0
2014-Aug-18 08:01N 63°09' W 001°53'1 0.6 9.0
2014-Aug-18 07:01N 63°09' W 001°52'1 0.7 9.1
2014-Aug-18 06:01N 63°10' W 001°50'1 0.8 9.1
2014-Aug-18 05:01N 63°10' W 001°49'1 0.7 9.0
2014-Aug-18 04:01N 63°11' W 001°48'1 0.7 9.0
2014-Aug-18 03:01N 63°11' W 001°47'1 0.6 9.2
2014-Aug-18 02:01N 63°12' W 001°47'1 0.7 9.4
2014-Aug-18 01:01N 63°12' W 001°46'0 0.4 9.6
2014-Aug-18 00:01N 63°13' W 001°46'0 0.2 9.7
2014-Aug-17 23:01N 63°13' W 001°46'0 0.3 9.8
2014-Aug-17 22:01N 63°13' W 001°46'0 0.2 9.9
2014-Aug-17 21:01N 63°13' W 001°46'0 0.4 10.0
2014-Aug-17 20:01N 63°13' W 001°45'1 0.8 10.0
2014-Aug-17 19:01N 63°14' W 001°43'1 1.0 10.1
2014-Aug-17 18:01N 63°14' W 001°41'1 1.1 10.3
2014-Aug-17 17:01N 63°15' W 001°39'2 2.4 10.3
2014-Aug-17 16:01N 63°17' W 001°37'0 0.0 10.3
2014-Aug-17 15:01N 63°17' W 001°37'1 1.1 10.5
2014-Aug-17 14:01N 63°18' W 001°36'1 0.8 10.5
2014-Aug-17 13:01N 63°19' W 001°36'1 0.6 10.4
2014-Aug-17 12:01N 63°19' W 001°37'0 0.5 10.5
2014-Aug-17 11:01N 63°20' W 001°37'0 0.2 10.4
2014-Aug-17 10:01N 63°20' W 001°38'0 0.0 10.4
2014-Aug-17 09:01N 63°20' W 001°38'1 0.5 10.4
2014-Aug-17 07:01N 63°19' W 001°35'1 0.8 10.6
2014-Aug-17 06:01N 63°19' W 001°34'1 0.9 10.5
2014-Aug-17 05:01N 63°19' W 001°32'1 0.9 10.7
2014-Aug-17 04:01N 63°19' W 001°30'1 0.7 10.7
2014-Aug-17 03:01N 63°19' W 001°28'1 0.5 10.8
2014-Aug-17 02:01N 63°19' W 001°27'0 0.3 10.8
2014-Aug-17 01:01N 63°20' W 001°27'0 0.2 10.8
2014-Aug-17 00:01N 63°20' W 001°27'0 0.2 10.8
2014-Aug-16 23:01N 63°20' W 001°27'0 0.3 10.8
2014-Aug-16 22:01N 63°20' W 001°28'0 0.2 10.8
2014-Aug-16 21:01N 63°20' W 001°28'0 0.3 10.7
2014-Aug-16 20:01N 63°20' W 001°29'0 0.3 10.7
2014-Aug-16 19:01N 63°20' W 001°30'0 0.2 10.6
2014-Aug-16 18:01N 63°20' W 001°30'0 0.3 10.6
2014-Aug-16 17:01N 63°20' W 001°31'0 0.4 10.7
2014-Aug-16 16:01N 63°20' W 001°32'0 0.3 10.7
2014-Aug-16 15:01N 63°21' W 001°32'0 0.4 10.5
2014-Aug-16 14:01N 63°21' W 001°33'1 0.5 10.6
2014-Aug-16 13:01N 63°21' W 001°34'1 0.5 10.6
2014-Aug-16 12:01N 63°20' W 001°36'0 0.5 10.5
2014-Aug-16 11:01N 63°20' W 001°37'1 0.5 10.7
2014-Aug-16 10:01N 63°20' W 001°38'0 0.5 10.6
2014-Aug-16 09:01N 63°20' W 001°39'1 0.6 10.7
2014-Aug-16 08:01N 63°20' W 001°40'0 0.4 10.7
2014-Aug-16 07:01N 63°20' W 001°41'0 0.2 10.8
2014-Aug-16 06:01N 63°20' W 001°41'0 0.4 10.8
2014-Aug-16 05:01N 63°20' W 001°42'0 0.3 10.8
2014-Aug-16 04:01N 63°20' W 001°43'0 0.4 10.9
2014-Aug-16 03:01N 63°20' W 001°44'0 0.4 11.0
2014-Aug-16 02:01N 63°20' W 001°45'1 0.5 10.9
2014-Aug-16 01:01N 63°20' W 001°46'0 0.5 11.0
2014-Aug-16 00:01N 63°19' W 001°47'1 0.6 11.0
2014-Aug-15 23:01N 63°19' W 001°48'1 0.7 11.0
2014-Aug-15 22:01N 63°19' W 001°50'1 0.8 11.0
2014-Aug-15 21:01N 63°19' W 001°51'1 0.6 11.0
2014-Aug-15 20:01N 63°19' W 001°53'1 0.6 10.9
2014-Aug-15 19:01N 63°19' W 001°54'1 0.5 11.0
2014-Aug-15 18:01N 63°18' W 001°55'0 0.5 11.0
2014-Aug-15 17:01N 63°18' W 001°56'0 0.4 11.0
2014-Aug-15 16:01N 63°18' W 001°57'1 0.5 11.1
2014-Aug-15 15:01N 63°18' W 001°58'0 0.4 11.1
2014-Aug-15 14:01N 63°18' W 001°59'0 0.4 11.1
2014-Aug-15 13:01N 63°18' W 001°60'0 0.5 11.3
2014-Aug-15 12:01N 63°18' W 002°01'0 0.4 11.2
2014-Aug-15 11:01N 63°17' W 002°02'0 0.5 11.2
2014-Aug-15 10:01N 63°17' W 002°03'1 0.5 11.1
2014-Aug-15 09:01N 63°17' W 002°04'0 0.5 11.0
2014-Aug-15 08:01N 63°17' W 002°05'1 0.6 11.1
2014-Aug-15 07:01N 63°17' W 002°06'1 0.6 10.9
2014-Aug-15 06:01N 63°17' W 002°07'1 0.7 11.2
2014-Aug-15 05:01N 63°17' W 002°09'1 0.6 11.2
2014-Aug-15 04:01N 63°16' W 002°10'1 1.2 11.1
2014-Aug-15 03:01N 63°15' W 002°12'0 0.0 11.0
2014-Aug-15 02:01N 63°15' W 002°12'1 0.7 11.1
2014-Aug-15 01:01N 63°15' W 002°13'1 0.7 11.0
2014-Aug-15 00:01N 63°14' W 002°13'1 0.6 10.9
2014-Aug-14 23:01N 63°14' W 002°14'0 0.5 10.9
2014-Aug-14 22:01N 63°13' W 002°14'0 0.3 10.7
2014-Aug-14 21:01N 63°13' W 002°15'0 0.3 10.7
2014-Aug-14 20:01N 63°13' W 002°15'0 0.3 10.6
2014-Aug-14 19:01N 63°13' W 002°15'0 0.3 10.6
2014-Aug-14 18:01N 63°12' W 002°16'0 0.3 10.5
2014-Aug-14 17:01N 63°12' W 002°16'0 0.4 10.5
2014-Aug-14 16:01N 63°12' W 002°16'0 0.3 10.4
2014-Aug-14 15:01N 63°11' W 002°17'1 0.5 10.5
2014-Aug-14 14:01N 63°11' W 002°17'0 0.4 10.6
2014-Aug-14 13:01N 63°11' W 002°17'0 0.4 10.5
2014-Aug-14 12:01N 63°10' W 002°17'0 0.5 10.7
2014-Aug-14 11:01N 63°10' W 002°17'0 0.5 10.9
2014-Aug-14 10:01N 63°09' W 002°17'0 0.4 10.9
2014-Aug-14 09:01N 63°09' W 002°17'1 0.5 10.8
2014-Aug-14 08:01N 63°08' W 002°17'0 0.5 10.8
2014-Aug-14 07:01N 63°08' W 002°16'0 0.5 10.8
2014-Aug-14 06:01N 63°08' W 002°15'0 0.4 10.9
2014-Aug-14 05:01N 63°08' W 002°14'0 0.5 11.0
2014-Aug-14 04:01N 63°07' W 002°13'1 0.5 11.0
2014-Aug-14 03:01N 63°07' W 002°12'0 0.5 11.0
2014-Aug-14 02:01N 63°07' W 002°11'1 0.6 11.1
2014-Aug-14 01:01N 63°07' W 002°10'0 0.0 11.1
2014-Aug-14 00:01N 63°07' W 002°10'0 0.2 11.1
2014-Aug-13 23:01N 63°07' W 002°10'0 0.1 11.1
2014-Aug-13 22:01N 63°07' W 002°09'0 0.1 11.2
2014-Aug-13 21:01N 63°07' W 002°09'0 0.2 11.2
2014-Aug-13 20:01N 63°06' W 002°09'0 0.2 11.0
2014-Aug-13 19:01N 63°06' W 002°09'0 0.2 11.0
2014-Aug-13 18:01N 63°06' W 002°08'0 0.3 11.0
2014-Aug-13 17:01N 63°06' W 002°08'0 0.3 10.9
2014-Aug-13 16:01N 63°06' W 002°07'0 0.4 10.9
2014-Aug-13 15:01N 63°06' W 002°06'0 0.3 10.9
2014-Aug-13 14:01N 63°06' W 002°06'0 0.3 10.9
2014-Aug-13 13:01N 63°06' W 002°05'0 0.2 10.8
2014-Aug-13 12:01N 63°06' W 002°05'0 0.1 10.7
2014-Aug-13 11:01N 63°07' W 002°05'0 0.1 10.6
2014-Aug-13 10:01N 63°07' W 002°05'0 0.1 10.5
2014-Aug-13 09:01N 63°07' W 002°05'0 0.1 10.5
2014-Aug-13 08:01N 63°07' W 002°05'0 0.2 10.4
2014-Aug-13 07:01N 63°07' W 002°05'0 0.3 10.3
2014-Aug-13 06:01N 63°07' W 002°05'0 0.2 10.2
2014-Aug-13 05:01N 63°07' W 002°06'0 0.1 10.3
2014-Aug-13 04:01N 63°07' W 002°06'0 0.1 10.3
2014-Aug-13 03:01N 63°07' W 002°06'0 0.1 10.2
2014-Aug-13 02:01N 63°07' W 002°06'0 0.1 10.2
2014-Aug-13 01:01N 63°07' W 002°05'0 0.1 10.2
2014-Aug-13 00:01N 63°07' W 002°05'0 0.1 10.2
2014-Aug-12 23:01N 63°07' W 002°05'0 0.2 10.2
2014-Aug-12 22:01N 63°08' W 002°06'   10.2

Dump ship's entire track history